Time;durP1;ratioP1;P1;durP2;ratioP2;P2;SDS_P1;SDS_P2;PMS_P1;PMS_P2;Temp;Humidity;BMP_temperature;BMP_pressure;BME280_temperature;BME280_humidity;BME280_pressure;Samples;Min_cycle;Max_cycle;Signal;HPM_P1;HPM_P2
2024/03/28 00:02:01;;;;;;;3.22;2.58;;;;;;;5.55;78.31;96200.16;5028530;28;20049;-41
2024/03/28 00:04:27;;;;;;;2.67;2.42;;;;;;;5.45;79.95;96196.31;5005314;28;20053;-39
2024/03/28 00:06:54;;;;;;;2.88;1.90;;;;;;;5.46;80.16;96200.56;5027323;28;20068;-40
2024/03/28 00:09:20;;;;;;;4.03;2.83;;;;;;;5.45;80.47;96196.31;5011865;28;20056;-40
2024/03/28 00:11:46;;;;;;;8.13;2.92;;;;;;;5.50;79.92;96199.50;5021630;28;20054;-40
2024/03/28 00:14:13;;;;;;;4.30;2.63;;;;;;;5.55;79.82;96220.69;5026201;28;20049;-39
2024/03/28 00:16:39;;;;;;;3.75;2.88;;;;;;;5.48;80.57;96199.59;5027501;28;20057;-39
2024/03/28 00:19:05;;;;;;;6.45;2.40;;;;;;;5.55;79.93;96195.03;5025366;28;20053;-39
2024/03/28 00:21:31;;;;;;;3.55;2.65;;;;;;;5.53;80.48;96181.41;5025104;28;20042;-41
2024/03/28 00:23:57;;;;;;;4.95;2.92;;;;;;;5.58;81.19;96176.94;5026904;28;20084;-40
2024/03/28 00:26:22;;;;;;;5.30;3.20;;;;;;;5.56;81.07;96181.28;5027581;28;20037;-40
2024/03/28 00:28:48;;;;;;;2.97;2.67;;;;;;;5.60;81.56;96177.69;5023762;28;20047;-39
2024/03/28 00:31:14;;;;;;;4.07;2.65;;;;;;;5.63;81.46;96171.56;5021758;28;20052;-40
2024/03/28 00:33:40;;;;;;;3.63;1.08;;;;;;;5.69;81.72;96178.16;5027297;28;20425;-39
2024/03/28 00:36:06;;;;;;;2.83;0.98;;;;;;;5.69;82.50;96173.03;5026113;28;20356;-39
2024/03/28 00:38:33;;;;;;;6.18;3.50;;;;;;;5.70;81.35;96167.81;5007633;28;20061;-40
2024/03/28 00:40:59;;;;;;;3.58;2.67;;;;;;;5.78;81.32;96164.91;5028109;28;20133;-39
2024/03/28 00:43:24;;;;;;;6.28;1.30;;;;;;;5.75;80.85;96165.06;5026502;28;20457;-40
2024/03/28 00:45:50;;;;;;;5.65;1.90;;;;;;;5.66;81.97;96151.72;5026931;28;20464;-41
2024/03/28 00:48:17;;;;;;;3.50;2.75;;;;;;;5.64;82.62;96161.22;5009925;28;20076;-41
2024/03/28 00:50:52;;;;;;;3.83;2.45;;;;;;;5.69;82.83;96150.75;5022932;28;20041;-40
2024/03/28 00:53:18;;;;;;;3.47;3.10;;;;;;;5.77;82.22;96158.94;5026856;28;20053;-40
2024/03/28 00:55:44;;;;;;;6.45;3.25;;;;;;;5.81;81.71;96143.41;5027277;28;20049;-39
2024/03/28 00:58:12;;;;;;;3.95;3.15;;;;;;;5.81;81.27;96139.06;5010281;28;20045;-39
2024/03/28 01:00:38;;;;;;;3.85;3.28;;;;;;;5.79;82.07;96135.75;5023746;28;20045;-40
2024/03/28 01:03:04;;;;;;;4.28;3.53;;;;;;;5.78;83.38;96134.91;5026191;28;20504;-39
2024/03/28 01:05:30;;;;;;;4.50;3.47;;;;;;;5.77;83.88;96143.53;5021663;28;20063;-40
2024/03/28 01:07:56;;;;;;;6.03;3.90;;;;;;;5.81;83.85;96139.06;5006470;28;20034;-38
2024/03/28 01:10:23;;;;;;;5.97;3.50;;;;;;;5.83;84.89;96124.44;5022862;28;20048;-40
2024/03/28 01:12:49;;;;;;;5.35;3.60;;;;;;;5.91;84.14;96112.06;5018351;28;20076;-40
2024/03/28 01:15:17;;;;;;;13.18;2.80;;;;;;;5.96;83.74;96117.00;5026137;28;20387;-39
2024/03/28 01:17:44;;;;;;;4.43;3.92;;;;;;;6.01;85.12;96114.22;5027125;28;20056;-40
2024/03/28 01:20:11;;;;;;;7.45;5.15;;;;;;;6.06;84.69;96106.28;5017404;28;20061;-40
2024/03/28 01:22:38;;;;;;;4.07;3.70;;;;;;;6.07;84.79;96106.22;5023456;28;20053;-39
2024/03/28 01:25:06;;;;;;;4.95;4.45;;;;;;;6.11;85.19;96104.34;4998290;28;20037;-40
2024/03/28 01:27:38;;;;;;;5.70;5.18;;;;;;;6.11;86.07;96097.47;5010260;28;20049;-39
2024/03/28 01:30:06;;;;;;;5.85;5.03;;;;;;;6.21;84.97;96073.91;5020770;28;20046;-40
2024/03/28 01:32:33;;;;;;;5.28;4.40;;;;;;;6.24;84.57;96066.03;5009846;28;20107;-39
2024/03/28 01:34:59;;;;;;;11.13;5.53;;;;;;;6.23;84.67;96062.63;5026131;28;20053;-39
2024/03/28 01:37:25;;;;;;;7.88;4.80;;;;;;;6.24;84.52;96081.44;5024676;28;20049;-39
2024/03/28 01:39:52;;;;;;;6.65;4.43;;;;;;;6.28;85.08;96049.53;5021368;28;20045;-40
2024/03/28 01:42:18;;;;;;;6.20;5.22;;;;;;;6.31;85.55;96036.53;5029552;28;20046;-40
2024/03/28 01:44:44;;;;;;;4.60;2.28;;;;;;;6.26;84.72;96030.81;5025027;28;20363;-39
2024/03/28 01:47:11;;;;;;;5.47;4.63;;;;;;;6.34;85.04;96023.53;5025946;28;20049;-39
2024/03/28 01:49:38;;;;;;;5.25;4.35;;;;;;;6.34;85.77;96028.69;5009557;28;20056;-40
2024/03/28 01:52:05;;;;;;;9.50;4.25;;;;;;;6.35;84.84;96019.25;5017276;28;20108;-39
2024/03/28 01:54:35;;;;;;;5.78;4.55;;;;;;;6.40;85.65;96028.38;5025012;28;20660;-39
2024/03/28 01:57:02;;;;;;;5.20;4.72;;;;;;;6.38;84.99;96014.78;5025756;28;20076;-40
2024/03/28 01:59:29;;;;;;;5.43;3.28;;;;;;;6.45;83.93;96006.75;5005070;28;20065;-40
2024/03/28 02:01:56;;;;;;;5.15;3.70;;;;;;;6.42;85.46;96003.41;5022207;28;20061;-39
2024/03/28 02:04:23;;;;;;;5.53;4.97;;;;;;;6.47;84.68;95985.19;5019766;28;20065;-40
2024/03/28 02:06:50;;;;;;;7.22;5.57;;;;;;;6.45;85.09;95981.06;5024805;28;20041;-40
2024/03/28 02:09:15;;;;;;;7.15;5.47;;;;;;;6.43;85.74;95976.81;5022133;28;20056;-40
2024/03/28 02:11:41;;;;;;;8.15;3.78;;;;;;;6.45;85.65;95970.78;5025532;28;20164;-42
2024/03/28 02:14:07;;;;;;;9.73;4.32;;;;;;;6.45;85.00;95981.88;5026067;28;20040;-40
2024/03/28 02:16:35;;;;;;;6.85;3.80;;;;;;;6.41;84.84;95960.66;5026117;28;20125;-41
2024/03/28 02:19:01;;;;;;;5.72;4.15;;;;;;;6.46;85.29;95944.16;5012997;28;20487;-39
2024/03/28 02:21:26;;;;;;;6.82;3.78;;;;;;;6.45;84.22;95937.34;4999644;28;20042;-40
2024/03/28 02:23:53;;;;;;;4.40;2.35;;;;;;;6.42;84.37;95938.34;5022948;28;20049;-41
2024/03/28 02:26:21;;;;;;;7.07;3.80;;;;;;;6.45;85.15;95924.50;5025875;28;20107;-40
2024/03/28 02:28:48;;;;;;;3.95;3.35;;;;;;;6.43;85.23;95922.81;4992262;28;20503;-40
2024/03/28 02:31:14;;;;;;;7.18;4.70;;;;;;;6.48;84.77;95921.78;5008419;28;20041;-39
2024/03/28 02:33:40;;;;;;;5.88;4.68;;;;;;;6.48;85.03;95912.31;5025379;28;20046;-41
2024/03/28 02:36:06;;;;;;;4.50;4.10;;;;;;;6.51;85.06;95906.16;5025397;28;20041;-40
2024/03/28 02:38:32;;;;;;;4.78;1.98;;;;;;;6.46;86.01;95901.28;5021739;28;20096;-40
2024/03/28 02:40:58;;;;;;;9.18;5.82;;;;;;;6.45;86.30;95896.22;5024508;28;20794;-39
2024/03/28 02:43:24;;;;;;;7.72;5.20;;;;;;;6.41;85.66;95885.28;5010976;28;20061;-42
2024/03/28 02:45:50;;;;;;;6.78;5.50;;;;;;;6.40;86.52;95888.75;5009207;28;20060;-43
2024/03/28 02:48:17;;;;;;;10.10;4.97;;;;;;;6.38;86.90;95875.97;5001249;28;20057;-40
2024/03/28 02:50:43;;;;;;;7.22;4.20;;;;;;;6.34;85.98;95871.91;5024330;28;20517;-40
2024/03/28 02:53:09;;;;;;;5.40;3.88;;;;;;;6.35;86.00;95867.63;5006310;28;20057;-40
2024/03/28 02:55:34;;;;;;;5.18;4.32;;;;;;;6.32;86.82;95860.91;5024963;28;20072;-40
2024/03/28 02:58:00;;;;;;;5.65;5.15;;;;;;;6.29;86.92;95855.94;5025255;28;20081;-41
2024/03/28 03:00:26;;;;;;;5.15;4.13;;;;;;;6.29;87.48;95855.94;5024859;28;20073;-40
2024/03/28 03:02:52;;;;;;;9.93;4.53;;;;;;;6.29;87.25;95861.06;5021341;28;20061;-41
2024/03/28 03:05:19;;;;;;;6.97;5.13;;;;;;;6.30;86.29;95845.56;5024650;28;20053;-40
2024/03/28 03:07:44;;;;;;;3.58;3.25;;;;;;;6.31;86.67;95836.09;5009323;28;20049;-40
2024/03/28 03:10:10;;;;;;;6.40;4.13;;;;;;;6.29;86.28;95836.19;5014013;28;20049;-40
2024/03/28 03:12:36;;;;;;;11.35;4.28;;;;;;;6.30;87.03;95826.75;5024783;28;20045;-41
2024/03/28 03:15:02;;;;;;;6.55;4.40;;;;;;;6.27;87.34;95824.31;5024357;28;20072;-39
2024/03/28 03:17:28;;;;;;;5.65;3.60;;;;;;;6.29;86.91;95820.75;5018250;28;20050;-39
2024/03/28 03:19:58;;;;;;;6.90;4.28;;;;;;;6.30;86.90;95825.00;5024123;28;20763;-39
2024/03/28 03:22:24;;;;;;;6.93;4.32;;;;;;;6.30;87.33;95811.31;5021179;28;20058;-39
2024/03/28 03:24:56;;;;;;;5.18;4.03;;;;;;;6.29;87.20;95819.94;5024848;28;20049;-41
2024/03/28 03:27:22;;;;;;;4.85;3.45;;;;;;;6.29;87.73;95807.09;5024037;28;20069;-39
2024/03/28 03:35:18;;;;;;;6.93;4.20;;;;;;;6.25;87.16;95792.75;5008147;28;20064;-41
2024/03/28 03:37:44;;;;;;;3.75;3.30;;;;;;;6.17;87.53;95814.56;5028675;28;20132;-41
2024/03/28 03:40:10;;;;;;;6.88;4.88;;;;;;;6.16;87.57;95810.34;5027832;28;20550;-40
2024/03/28 03:42:36;;;;;;;4.57;4.00;;;;;;;6.13;88.70;95805.34;5028041;28;20096;-41
2024/03/28 03:45:02;;;;;;;6.45;2.85;;;;;;;6.14;89.46;95812.13;5028273;28;20485;-41
2024/03/28 03:47:28;;;;;;;4.97;3.63;;;;;;;6.15;89.34;95813.78;5028341;28;20058;-41
2024/03/28 03:49:53;;;;;;;6.35;1.27;;;;;;;6.08;90.01;95822.72;5025399;28;20132;-40
2024/03/28 03:52:19;;;;;;;3.50;2.97;;;;;;;6.02;89.98;95817.91;5026255;28;20529;-41
2024/03/28 03:54:45;;;;;;;3.90;3.60;;;;;;;6.01;89.37;95811.13;5022810;28;20041;-40
2024/03/28 03:57:11;;;;;;;7.15;4.30;;;;;;;6.00;89.12;95824.84;5024571;28;20045;-41
2024/03/28 03:59:38;;;;;;;3.67;3.13;;;;;;;5.95;89.68;95822.53;5024526;28;20057;-40
2024/03/28 04:02:05;;;;;;;4.35;2.30;;;;;;;5.91;88.54;95814.16;5026797;28;20057;-40
2024/03/28 04:04:31;;;;;;;5.40;5.10;;;;;;;5.79;88.22;95802.78;5028014;28;20060;-40
2024/03/28 04:06:57;;;;;;;1.88;1.77;;;;;;;5.77;86.75;95788.34;5005913;28;21658;-39
2024/03/28 04:09:23;;;;;;;2.60;2.50;;;;;;;5.73;87.20;95785.13;5004540;28;20045;-40
2024/03/28 04:11:50;;;;;;;4.13;3.90;;;;;;;5.73;87.33;95777.44;5017369;28;20697;-40
2024/03/28 04:14:16;;;;;;;4.63;2.83;;;;;;;5.73;86.86;95794.56;4985159;28;20534;-41
2024/03/28 04:16:42;;;;;;;4.28;1.80;;;;;;;5.77;86.90;95783.22;5004229;28;20042;-39
2024/03/28 04:19:08;;;;;;;1.92;1.83;;;;;;;5.80;87.56;95793.34;5002710;28;20092;-41
2024/03/28 04:21:34;;;;;;;2.17;2.05;;;;;;;5.84;88.05;95789.69;5006376;28;20487;-39
2024/03/28 04:24:01;;;;;;;1.60;1.13;;;;;;;5.85;88.83;95800.81;4981844;28;20467;-39
2024/03/28 04:26:27;;;;;;;2.55;2.35;;;;;;;5.90;88.01;95804.78;4982577;28;20053;-40
2024/03/28 04:28:52;;;;;;;2.22;2.13;;;;;;;5.96;88.50;95807.94;4999002;28;20495;-41
2024/03/28 04:31:18;;;;;;;4.53;3.15;;;;;;;5.97;87.91;95801.88;5007442;28;20053;-39
2024/03/28 04:33:45;;;;;;;2.35;2.25;;;;;;;5.98;87.88;95812.09;4982324;28;20078;-40
2024/03/28 04:36:10;;;;;;;1.25;0.52;;;;;;;6.01;88.14;95821.38;4986862;28;20423;-40
2024/03/28 04:38:36;;;;;;;3.22;2.97;;;;;;;5.99;86.79;95826.59;4999484;28;20077;-39
2024/03/28 04:41:03;;;;;;;3.38;3.17;;;;;;;6.04;86.27;95822.06;5005439;28;20148;-40
2024/03/28 04:43:30;;;;;;;2.22;1.98;;;;;;;6.06;86.24;95829.69;5001870;28;20061;-39
2024/03/28 04:45:56;;;;;;;1.90;1.80;;;;;;;6.12;85.54;95854.25;4999557;28;20050;-40
2024/03/28 04:48:21;;;;;;;1.70;1.60;;;;;;;6.17;86.14;95853.09;5006266;28;20184;-40
2024/03/28 04:50:47;;;;;;;2.10;2.00;;;;;;;6.10;85.63;95856.88;5002337;28;20466;-39
2024/03/28 04:53:13;;;;;;;2.75;2.65;;;;;;;6.22;85.83;95885.41;5004528;28;20053;-41
2024/03/28 04:55:38;;;;;;;1.45;1.40;;;;;;;6.09;84.39;95868.09;4997103;28;20069;-41
2024/03/28 04:58:04;;;;;;;2.42;2.00;;;;;;;6.03;83.03;95873.50;4996269;28;20077;-40
2024/03/28 05:00:30;;;;;;;1.65;1.55;;;;;;;5.99;82.39;95879.69;5007470;28;20046;-39
2024/03/28 05:02:55;;;;;;;0.35;0.30;;;;;;;5.91;81.90;95883.50;5005205;28;20411;-40
2024/03/28 05:05:21;;;;;;;2.25;2.15;;;;;;;5.76;81.82;95886.84;5007564;28;20099;-40
2024/03/28 05:07:47;;;;;;;1.88;1.77;;;;;;;5.74;81.39;95871.50;4998962;28;20039;-40
2024/03/28 05:10:12;;;;;;;2.05;1.95;;;;;;;5.66;80.55;95873.63;5001906;28;20052;-41
2024/03/28 05:12:38;;;;;;;3.90;2.38;;;;;;;5.64;82.06;95873.72;4996095;28;20077;-39
2024/03/28 05:15:04;;;;;;;1.58;1.48;;;;;;;5.66;81.03;95886.47;4992186;28;20070;-40
2024/03/28 05:17:30;;;;;;;1.80;1.70;;;;;;;5.68;81.40;95901.78;5000302;28;20067;-39
2024/03/28 05:19:55;;;;;;;0.38;0.32;;;;;;;5.60;81.62;95908.13;5000247;28;20396;-40
2024/03/28 05:22:21;;;;;;;2.45;2.25;;;;;;;5.65;81.54;95923.31;5001324;28;20049;-40
2024/03/28 05:24:47;;;;;;;1.77;1.67;;;;;;;5.58;81.40;95919.41;4999500;28;20046;-40
2024/03/28 05:27:13;;;;;;;2.00;1.90;;;;;;;5.58;81.48;95922.81;4997600;28;20066;-40
2024/03/28 05:29:40;;;;;;;1.17;1.17;;;;;;;5.55;81.19;95927.25;5004495;28;20152;-40
2024/03/28 05:32:07;;;;;;;1.98;1.88;;;;;;;5.41;80.95;95936.44;5007176;28;20430;-39
2024/03/28 05:34:33;;;;;;;1.48;1.38;;;;;;;5.29;79.66;95948.13;4993092;28;20049;-40
2024/03/28 05:36:59;;;;;;;2.78;2.58;;;;;;;5.31;80.26;95959.16;5005774;28;20050;-41
2024/03/28 05:39:24;;;;;;;1.90;1.80;;;;;;;5.26;79.19;95958.53;5002143;28;20144;-39
2024/03/28 05:41:50;;;;;;;2.03;1.92;;;;;;;5.21;79.36;95974.16;5005852;28;20064;-39
2024/03/28 05:44:16;;;;;;;1.40;1.38;;;;;;;5.21;79.21;95981.00;5005235;28;20604;-39
2024/03/28 05:46:41;;;;;;;1.58;1.48;;;;;;;5.09;78.34;95975.53;4994077;28;20046;-39
2024/03/28 05:49:07;;;;;;;1.42;1.40;;;;;;;5.09;78.83;95988.38;5001169;28;20042;-39
2024/03/28 05:51:33;;;;;;;1.65;1.55;;;;;;;5.01;77.95;96000.72;4989745;28;20086;-39
2024/03/28 05:53:58;;;;;;;1.65;1.58;;;;;;;4.92;77.45;96007.09;5003004;28;20041;-39
2024/03/28 05:56:25;;;;;;;1.30;1.30;;;;;;;4.83;77.70;96007.50;4999326;28;20049;-40
2024/03/28 05:58:50;;;;;;;1.08;1.08;;;;;;;4.85;77.44;96019.34;5006608;28;20487;-38
2024/03/28 06:01:17;;;;;;;1.50;1.40;;;;;;;4.78;76.46;96019.69;4995836;28;20070;-39
2024/03/28 06:03:43;;;;;;;1.73;1.63;;;;;;;4.78;77.73;96028.22;4998249;28;20045;-39
2024/03/28 06:06:09;;;;;;;1.92;1.83;;;;;;;4.71;77.72;96030.22;5001809;28;20053;-39
2024/03/28 06:08:36;;;;;;;0.40;0.40;;;;;;;4.71;77.34;96035.34;4992910;28;20537;-39
2024/03/28 06:11:03;;;;;;;1.42;1.35;;;;;;;4.70;76.84;96043.09;4996907;28;20057;-39
2024/03/28 06:13:30;;;;;;;1.95;1.85;;;;;;;4.52;77.23;96053.25;4996863;28;20096;-39
2024/03/28 06:15:56;;;;;;;1.70;1.60;;;;;;;4.58;76.80;96063.25;4982584;28;20046;-40
2024/03/28 06:18:24;;;;;;;1.25;1.25;;;;;;;4.55;76.66;96054.84;5003051;28;20042;-39
2024/03/28 06:20:59;;;;;;;2.95;2.70;;;;;;;4.49;76.42;96061.06;4985333;28;20053;-41
2024/03/28 06:23:25;;;;;;;2.15;1.65;;;;;;;4.51;76.73;96069.53;5004196;28;20057;-38
2024/03/28 06:25:51;;;;;;;1.33;1.27;;;;;;;4.44;77.20;96073.25;5003360;28;20048;-40
2024/03/28 06:28:19;;;;;;;1.58;1.50;;;;;;;4.35;77.22;96084.69;4987391;28;20072;-39
2024/03/28 06:30:45;;;;;;;1.88;1.77;;;;;;;4.43;77.42;96094.63;4987984;28;20060;-40
2024/03/28 06:33:11;;;;;;;0.20;0.20;;;;;;;4.46;76.81;96099.66;4980395;28;20400;-40
2024/03/28 06:35:37;;;;;;;1.35;1.33;;;;;;;4.48;76.85;96105.53;5003941;28;20112;-40
2024/03/28 06:38:03;;;;;;;2.45;2.35;;;;;;;4.40;77.49;96113.53;5002352;28;20049;-39
2024/03/28 06:40:29;;;;;;;2.03;1.92;;;;;;;4.41;77.22;96119.47;4989767;28;20046;-40
2024/03/28 06:42:55;;;;;;;0.60;0.40;;;;;;;4.39;77.41;96116.16;4997454;28;20548;-40
2024/03/28 06:45:22;;;;;;;1.70;0.70;;;;;;;4.40;76.86;96118.66;4989593;28;20439;-40
2024/03/28 06:47:48;;;;;;;2.25;2.15;;;;;;;4.39;77.66;96122.09;4996284;28;20046;-40
2024/03/28 06:50:14;;;;;;;1.90;1.80;;;;;;;4.41;76.92;96125.44;4988260;28;20065;-40
2024/03/28 06:52:39;;;;;;;2.00;1.90;;;;;;;4.41;76.94;96129.72;4999854;28;20077;-40
2024/03/28 06:55:05;;;;;;;2.33;2.22;;;;;;;4.39;76.99;96116.16;4990554;28;20099;-40
2024/03/28 06:57:31;;;;;;;3.40;1.42;;;;;;;4.41;77.00;96120.31;5001109;28;20046;-39
2024/03/28 06:59:57;;;;;;;1.98;1.88;;;;;;;4.42;77.46;96121.97;5002345;28;20054;-40
2024/03/28 07:02:22;;;;;;;1.33;1.33;;;;;;;4.37;77.90;96124.75;5002790;28;20072;-40
2024/03/28 07:04:48;;;;;;;1.52;1.45;;;;;;;4.35;77.77;96120.56;5003538;28;20058;-39
2024/03/28 07:07:14;;;;;;;1.98;1.52;;;;;;;4.41;77.39;96114.34;5006602;28;20041;-39
2024/03/28 07:09:39;;;;;;;2.67;2.58;;;;;;;4.37;78.09;96129.03;4998529;28;20123;-39
2024/03/28 07:12:05;;;;;;;2.72;1.63;;;;;;;4.42;78.23;96126.28;4998704;28;20050;-39
2024/03/28 07:14:31;;;;;;;2.50;1.88;;;;;;;4.47;77.48;96134.63;4999178;28;20084;-39
2024/03/28 07:16:56;;;;;;;2.20;2.10;;;;;;;4.61;78.70;96140.00;5005102;28;20046;-40
2024/03/28 07:19:22;;;;;;;0.40;0.17;;;;;;;5.36;79.05;96134.25;5005905;28;20474;-38
2024/03/28 07:21:48;;;;;;;2.55;1.85;;;;;;;6.24;77.56;96128.53;4998882;28;20046;-39
2024/03/28 07:24:14;;;;;;;1.83;1.73;;;;;;;7.03;75.35;96135.84;5004390;28;20487;-39
2024/03/28 07:26:41;;;;;;;4.03;2.22;;;;;;;7.61;73.64;96151.72;5002121;28;20057;-39
2024/03/28 07:29:08;;;;;;;1.77;1.67;;;;;;;8.12;72.56;96153.25;5009654;28;20163;-41
2024/03/28 07:31:34;;;;;;;2.03;1.92;;;;;;;8.76;71.81;96160.03;4999860;28;20502;-39
2024/03/28 07:34:00;;;;;;;2.83;2.67;;;;;;;9.18;70.17;96160.16;5005750;28;20053;-40
2024/03/28 07:36:26;;;;;;;1.67;1.58;;;;;;;9.53;68.89;96161.56;5003414;28;20049;-41
2024/03/28 07:38:52;;;;;;;2.35;2.20;;;;;;;9.75;68.24;96165.38;5007377;28;20081;-40
2024/03/28 07:41:18;;;;;;;1.85;1.70;;;;;;;10.27;68.43;96181.97;5006635;28;20054;-38
2024/03/28 07:43:45;;;;;;;1.17;0.28;;;;;;;10.61;67.12;96173.00;4996422;28;20419;-39
2024/03/28 07:46:10;;;;;;;0.70;0.30;;;;;;;10.73;65.18;96172.19;5000313;28;20487;-40
2024/03/28 07:48:37;;;;;;;1.80;1.70;;;;;;;10.87;64.65;96173.84;5009024;28;20183;-41
2024/03/28 07:51:04;;;;;;;2.17;2.00;;;;;;;10.74;63.40;96181.59;4978023;28;20054;-39
2024/03/28 07:53:32;;;;;;;2.33;2.22;;;;;;;10.83;63.58;96177.59;4990651;28;20567;-40
2024/03/28 07:55:58;;;;;;;1.48;1.38;;;;;;;10.91;63.65;96187.44;5020723;28;20058;-40
2024/03/28 07:58:25;;;;;;;1.83;1.73;;;;;;;10.98;62.20;96185.28;5000946;28;20064;-39
2024/03/28 08:00:52;;;;;;;1.60;1.50;;;;;;;10.98;61.23;96191.25;4975903;28;20104;-40
2024/03/28 08:03:18;;;;;;;2.25;2.05;;;;;;;11.09;60.25;96182.78;5003800;28;20061;-40
2024/03/28 08:05:48;;;;;;;0.98;0.40;;;;;;;11.47;61.83;96186.31;5008703;28;20642;-40
2024/03/28 08:08:14;;;;;;;1.70;1.10;;;;;;;11.94;60.56;96198.66;5005116;28;20054;-40
2024/03/28 08:10:39;;;;;;;2.03;1.92;;;;;;;12.20;59.83;96198.63;5024590;28;20049;-40
2024/03/28 08:13:05;;;;;;;1.50;1.48;;;;;;;12.32;59.20;96191.69;5007905;28;20104;-40
2024/03/28 08:15:33;;;;;;;1.73;1.63;;;;;;;12.38;58.08;96200.81;4991297;28;20133;-40
2024/03/28 08:18:00;;;;;;;1.73;1.52;;;;;;;12.07;57.75;96202.09;5006742;28;20046;-40
2024/03/28 08:20:28;;;;;;;2.05;1.95;;;;;;;12.08;57.46;96195.97;5008594;28;20506;-40
2024/03/28 08:22:56;;;;;;;2.60;2.50;;;;;;;11.93;58.05;96209.97;4999757;28;20042;-39
2024/03/28 08:25:22;;;;;;;2.20;2.10;;;;;;;12.12;58.25;96206.13;4976104;28;20046;-41
2024/03/28 08:27:49;;;;;;;0.65;0.40;;;;;;;12.15;57.41;96204.13;5007797;28;20077;-40
2024/03/28 08:30:15;;;;;;;2.58;2.47;;;;;;;12.54;57.25;96211.75;5009267;28;20042;-40
2024/03/28 08:32:42;;;;;;;0.40;0.40;;;;;;;12.98;56.56;96209.41;4999185;28;20056;-40
2024/03/28 08:35:10;;;;;;;1.38;0.50;;;;;;;13.13;55.51;96216.19;4991938;28;20046;-40
2024/03/28 08:37:39;;;;;;;2.40;2.25;;;;;;;13.21;54.52;96214.66;5005890;28;20410;-39
2024/03/28 08:40:10;;;;;;;2.20;2.10;;;;;;;13.43;55.25;96214.81;5002330;28;20053;-41
2024/03/28 08:42:38;;;;;;;1.75;0.60;;;;;;;13.39;54.11;96221.19;5005557;28;20047;-43
2024/03/28 08:45:04;;;;;;;2.65;1.77;;;;;;;13.22;53.25;96225.88;5006256;28;20045;-41
2024/03/28 08:47:31;;;;;;;2.05;1.95;;;;;;;12.98;54.22;96229.38;5006791;28;20069;-41
2024/03/28 08:49:57;;;;;;;1.90;0.28;;;;;;;13.15;54.33;96225.53;4999091;28;20057;-41
2024/03/28 08:52:23;;;;;;;1.85;1.75;;;;;;;13.27;53.17;96228.97;4993795;28;20046;-40
2024/03/28 08:54:48;;;;;;;1.48;0.30;;;;;;;13.25;53.92;96241.25;5001445;28;20053;-39
2024/03/28 08:57:14;;;;;;;2.08;1.77;;;;;;;13.13;52.48;96245.59;4992403;28;20073;-40
2024/03/28 08:59:40;;;;;;;1.63;0.43;;;;;;;13.20;52.89;96239.00;5004029;28;20058;-40
2024/03/28 09:02:07;;;;;;;0.20;0.20;;;;;;;13.55;53.86;96236.47;5002436;28;20476;-40
2024/03/28 09:04:33;;;;;;;0.93;0.40;;;;;;;13.62;52.69;96232.47;5003284;28;20554;-41
2024/03/28 09:06:59;;;;;;;1.92;1.83;;;;;;;13.82;52.96;96238.72;5003300;28;20060;-39
2024/03/28 09:09:25;;;;;;;0.50;0.30;;;;;;;13.78;52.17;96241.69;5004705;28;20054;-41
2024/03/28 09:11:51;;;;;;;0.40;0.30;;;;;;;14.14;52.29;96238.00;5007051;28;20494;-41
2024/03/28 09:14:16;;;;;;;0.30;0.25;;;;;;;14.01;51.62;96242.50;4998264;28;20105;-40
2024/03/28 09:16:42;;;;;;;0.95;0.95;;;;;;;14.14;51.52;96243.22;4999545;28;20344;-40
2024/03/28 09:19:08;;;;;;;1.95;1.85;;;;;;;14.13;51.11;96257.16;5007079;28;20490;-39
2024/03/28 09:21:34;;;;;;;1.70;0.22;;;;;;;13.72;50.37;96261.19;5003046;28;20145;-41
2024/03/28 09:24:00;;;;;;;2.28;1.88;;;;;;;13.19;51.78;96257.28;4999226;28;20068;-41
2024/03/28 09:26:25;;;;;;;0.60;0.38;;;;;;;13.14;52.95;96264.59;4985783;28;20191;-40
2024/03/28 09:28:58;;;;;;;0.30;0.30;;;;;;;13.53;52.69;96262.59;5000067;28;20089;-40
2024/03/28 09:31:26;;;;;;;0.22;0.13;;;;;;;13.61;50.79;96269.78;4991225;28;20054;-40
2024/03/28 09:33:52;;;;;;;0.60;0.32;;;;;;;14.04;51.73;96263.06;5007186;28;20049;-41
2024/03/28 09:36:18;;;;;;;1.00;0.57;;;;;;;14.29;51.85;96271.59;4994333;28;20053;-42
2024/03/28 09:38:44;;;;;;;0.80;0.60;;;;;;;14.41;51.26;96264.56;4996507;28;20054;-40
2024/03/28 09:41:22;;;;;;;0.38;0.35;;;;;;;14.44;51.02;96268.69;5018268;28;20054;-41
2024/03/28 09:43:49;;;;;;;0.82;0.30;;;;;;;14.49;51.82;96263.97;5005837;28;20042;-40
2024/03/28 09:46:17;;;;;;;0.57;0.57;;;;;;;14.45;51.48;96259.94;4995902;28;20088;-40
2024/03/28 09:48:43;;;;;;;0.55;0.50;;;;;;;14.60;50.77;96245.72;5003361;28;20080;-42
2024/03/28 09:51:11;;;;;;;1.98;0.30;;;;;;;14.40;50.24;96247.28;5000275;28;20495;-40
2024/03/28 09:53:38;;;;;;;1.02;0.47;;;;;;;14.26;50.11;96251.00;5001525;28;20089;-40
2024/03/28 09:56:04;;;;;;;3.38;0.60;;;;;;;14.06;50.31;96248.19;4999682;28;20072;-43
2024/03/28 09:58:29;;;;;;;0.85;0.52;;;;;;;14.23;51.48;96249.47;4999793;28;20054;-41
2024/03/28 10:00:55;;;;;;;0.60;0.40;;;;;;;14.44;51.47;96247.88;5001634;28;20833;-41
2024/03/28 10:03:32;;;;;;;0.93;0.93;;;;;;;14.49;50.67;96250.94;4997578;28;20422;-40
2024/03/28 10:05:58;;;;;;;;;;;;;;;14.21;49.43;96248.75;4999029;28;20478;-43
2024/03/28 10:08:26;;;;;;;2.60;0.30;;;;;;;13.64;50.58;96261.75;4974263;28;19981;-40
2024/03/28 10:10:53;;;;;;;0.57;0.55;;;;;;;13.64;52.15;96240.16;4991681;28;20054;-41
2024/03/28 10:13:30;;;;;;;0.40;0.38;;;;;;;13.32;51.24;96252.00;5000107;28;20045;-41
2024/03/28 10:15:55;;;;;;;2.92;0.30;;;;;;;13.22;51.92;96242.31;4996353;28;20050;-42
2024/03/28 10:18:21;;;;;;;1.30;0.40;;;;;;;13.17;52.12;96257.41;4983357;28;20080;-42
2024/03/28 10:20:56;;;;;;;1.10;0.30;;;;;;;12.50;52.97;96246.63;5002794;28;20046;-45
2024/03/28 10:23:22;;;;;;;3.28;0.82;;;;;;;12.33;54.30;96243.50;5002874;28;20069;-39
2024/03/28 10:25:48;;;;;;;0.90;0.68;;;;;;;12.03;53.61;96243.88;4997290;28;20426;-41
2024/03/28 10:28:31;;;;;;;2.78;0.60;;;;;;;11.90;55.09;96249.06;4998486;28;20136;-40
2024/03/28 10:30:59;;;;;;;1.15;0.40;;;;;;;11.77;53.61;96224.00;4998664;28;20050;-41
2024/03/28 10:33:25;;;;;;;0.38;0.38;;;;;;;11.70;55.31;96238.31;4993512;28;20054;-41
2024/03/28 10:36:00;;;;;;;0.70;0.68;;;;;;;11.91;55.73;96229.97;4996764;28;20080;-42
2024/03/28 10:38:25;;;;;;;3.42;0.65;;;;;;;11.94;55.23;96235.81;4989759;28;20057;-41
2024/03/28 10:40:55;;;;;;;0.52;0.52;;;;;;;12.14;56.57;96224.97;4991537;28;20543;-41
2024/03/28 10:43:25;;;;;;;0.95;0.40;;;;;;;12.26;55.44;96221.50;4998361;28;20045;-43
2024/03/28 10:45:53;;;;;;;2.30;0.73;;;;;;;12.47;56.22;96221.75;4982033;28;20054;-43
2024/03/28 10:48:19;;;;;;;3.75;0.73;;;;;;;12.78;56.09;96233.44;4975961;28;20050;-43
2024/03/28 10:51:15;;;;;;;1.73;0.68;;;;;;;12.70;54.41;96226.22;4995740;28;20519;-41
2024/03/28 10:56:31;;;;;;;2.30;0.73;;;;;;;12.37;53.99;96230.31;5067651;27;20404;-42
2024/03/28 10:58:59;;;;;;;0.60;0.50;;;;;;;12.03;54.61;96229.13;5019274;28;20060;-41
2024/03/28 11:01:29;;;;;;;2.28;0.52;;;;;;;11.97;55.46;96224.38;5016935;28;20422;-42
2024/03/28 11:03:56;;;;;;;2.58;1.63;;;;;;;11.96;56.45;96223.53;5007543;28;20046;-41
2024/03/28 11:06:24;;;;;;;1.55;0.57;;;;;;;11.47;56.01;96222.56;4995918;28;20038;-40
2024/03/28 11:08:49;;;;;;;1.83;0.75;;;;;;;11.01;56.29;96222.13;5001992;28;20427;-42
2024/03/28 11:11:15;;;;;;;0.95;0.93;;;;;;;10.53;58.08;96228.66;4997593;28;20096;-41
2024/03/28 11:13:41;;;;;;;0.90;0.55;;;;;;;10.36;58.98;96236.63;4995094;28;20217;-40
2024/03/28 11:16:12;;;;;;;0.80;0.80;;;;;;;10.28;60.26;96230.19;5001677;28;20128;-41
2024/03/28 11:18:39;;;;;;;4.07;0.73;;;;;;;10.13;61.59;96220.78;4979618;28;20610;-41
2024/03/28 11:21:06;;;;;;;1.15;0.68;;;;;;;10.36;62.31;96215.91;5002107;28;20065;-43
2024/03/28 11:23:34;;;;;;;1.15;0.30;;;;;;;10.39;63.12;96223.50;5020854;28;20407;-41
2024/03/28 11:26:02;;;;;;;2.60;0.90;;;;;;;10.72;63.50;96214.53;4987763;28;20054;-41
2024/03/28 11:28:29;;;;;;;3.70;0.55;;;;;;;10.90;60.53;96216.84;5002383;28;20038;-42
2024/03/28 11:30:56;;;;;;;3.25;0.90;;;;;;;11.04;61.13;96214.16;4999694;28;20506;-41
2024/03/28 11:33:31;;;;;;;0.60;0.30;;;;;;;10.83;60.03;96202.63;4995996;28;20503;-41
2024/03/28 11:36:00;;;;;;;2.10;0.22;;;;;;;10.53;59.33;96212.28;4985613;28;20050;-42
2024/03/28 11:38:27;;;;;;;1.83;0.93;;;;;;;10.37;58.30;96205.47;4980858;28;20080;-43
2024/03/28 11:40:53;;;;;;;2.15;0.73;;;;;;;10.32;58.42;96209.28;4999418;28;20042;-40
2024/03/28 11:43:21;;;;;;;2.95;1.17;;;;;;;10.06;59.38;96201.44;4990274;28;20046;-44
2024/03/28 11:48:26;;;;;;;8.13;3.55;;;;;;;10.02;59.60;96209.38;5061941;28;20394;-41